createdAt,value
2023-07-24T00:01:24.459Z,3.22
2023-07-24T00:03:51.106Z,3.47
2023-07-24T00:06:17.650Z,3.50
2023-07-24T00:08:44.197Z,3.10
2023-07-24T00:11:10.949Z,3.70
2023-07-24T00:13:37.629Z,3.40
2023-07-24T00:16:11.426Z,3.58
2023-07-24T00:18:37.971Z,3.50
2023-07-24T00:21:04.489Z,3.47
2023-07-24T00:23:31.036Z,3.35
2023-07-24T00:25:57.587Z,3.30
2023-07-24T00:28:24.173Z,3.35
2023-07-24T00:30:50.807Z,3.90
2023-07-24T00:33:18.016Z,3.45
2023-07-24T00:35:44.832Z,3.50
2023-07-24T00:38:12.654Z,3.53
2023-07-24T00:40:39.263Z,3.45
2023-07-24T00:43:05.955Z,3.42
2023-07-24T00:45:32.899Z,3.45
2023-07-24T00:48:01.249Z,3.90
2023-07-24T00:50:29.913Z,3.60
2023-07-24T00:52:57.267Z,3.83
2023-07-24T00:55:24.022Z,3.90
2023-07-24T00:57:50.790Z,3.90
2023-07-24T01:00:17.642Z,3.97
2023-07-24T01:02:45.264Z,4.25
2023-07-24T01:05:15.875Z,3.88
2023-07-24T01:07:42.774Z,3.90
2023-07-24T01:10:11.034Z,3.85
2023-07-24T01:12:41.891Z,3.95
2023-07-24T01:15:15.368Z,3.90
2023-07-24T01:17:49.173Z,3.97
2023-07-24T01:20:18.752Z,3.78
2023-07-24T01:23:07.534Z,3.88
2023-07-24T01:25:37.698Z,3.75
2023-07-24T01:28:10.497Z,3.60
2023-07-24T01:30:37.029Z,4.20
2023-07-24T01:33:03.760Z,3.88
2023-07-24T01:35:31.580Z,4.10
2023-07-24T01:38:01.206Z,3.60
2023-07-24T01:40:27.801Z,3.70
2023-07-24T01:42:54.531Z,4.20
2023-07-24T01:45:21.172Z,3.50
2023-07-24T01:47:47.736Z,3.97
2023-07-24T01:50:14.469Z,3.83
2023-07-24T01:52:41.107Z,4.07
2023-07-24T01:55:08.153Z,3.53
2023-07-24T01:57:34.709Z,4.10
2023-07-24T02:00:01.250Z,4.05
2023-07-24T02:02:27.896Z,3.80
2023-07-24T02:04:55.648Z,4.03
2023-07-24T02:07:22.923Z,4.07
2023-07-24T02:09:49.527Z,3.80
2023-07-24T02:12:16.053Z,4.00
2023-07-24T02:14:42.525Z,4.15
2023-07-24T02:17:11.202Z,4.43
2023-07-24T02:19:37.964Z,4.75
2023-07-24T02:22:06.376Z,4.30
2023-07-24T02:24:35.632Z,4.60
2023-07-24T02:27:02.611Z,4.35
2023-07-24T02:29:31.904Z,4.45
2023-07-24T02:31:59.426Z,4.47
2023-07-24T02:34:27.207Z,3.85
2023-07-24T02:36:54.330Z,4.07
2023-07-24T02:39:21.588Z,4.07
2023-07-24T02:41:49.163Z,4.07
2023-07-24T02:44:15.762Z,4.00
2023-07-24T02:46:42.350Z,4.28
2023-07-24T02:49:08.929Z,4.40
2023-07-24T02:51:35.396Z,4.10
2023-07-24T02:54:01.867Z,4.18
2023-07-24T02:56:28.583Z,3.92
2023-07-24T02:58:55.287Z,4.40
2023-07-24T03:01:21.792Z,4.15
2023-07-24T03:03:48.396Z,4.43
2023-07-24T03:06:14.966Z,4.88
2023-07-24T03:08:41.486Z,4.60
2023-07-24T03:11:08.667Z,4.90
2023-07-24T03:13:35.270Z,4.78
2023-07-24T03:16:01.913Z,4.78
2023-07-24T03:18:28.571Z,4.80
2023-07-24T03:20:55.123Z,4.93
2023-07-24T03:23:21.714Z,4.38
2023-07-24T03:25:48.266Z,4.03
2023-07-24T03:28:14.884Z,4.40
2023-07-24T03:30:41.440Z,4.10
2023-07-24T03:33:08.420Z,4.40
2023-07-24T03:35:35.057Z,3.90
2023-07-24T03:38:01.570Z,4.20
2023-07-24T03:40:28.469Z,3.88
2023-07-24T03:42:55.052Z,4.35
2023-07-24T03:45:22.399Z,3.97
2023-07-24T03:47:48.964Z,4.07
2023-07-24T03:50:15.715Z,4.20
2023-07-24T03:52:42.237Z,3.88
2023-07-24T03:55:09.157Z,4.20
2023-07-24T03:57:35.935Z,4.22
2023-07-24T04:00:03.522Z,4.25
2023-07-24T04:02:39.241Z,4.00
2023-07-24T04:05:05.877Z,4.38
2023-07-24T04:07:32.381Z,4.40
2023-07-24T04:09:58.904Z,4.18
2023-07-24T04:12:25.439Z,4.32
2023-07-24T04:14:51.963Z,5.00
2023-07-24T04:17:18.670Z,4.70
2023-07-24T04:19:45.331Z,4.70
2023-07-24T04:22:11.880Z,4.68
2023-07-24T04:24:38.457Z,4.57
2023-07-24T04:27:05.401Z,4.55
2023-07-24T04:29:31.967Z,4.70
2023-07-24T04:31:58.421Z,4.50
2023-07-24T04:34:24.884Z,5.05
2023-07-24T04:36:51.446Z,5.25
2023-07-24T04:39:17.940Z,4.97
2023-07-24T04:41:44.511Z,5.15
2023-07-24T04:44:11.084Z,4.65
2023-07-24T04:46:37.618Z,4.97
2023-07-24T04:49:04.233Z,4.50
2023-07-24T04:51:30.779Z,4.78
2023-07-24T04:53:57.310Z,5.07
2023-07-24T04:56:23.891Z,5.32
2023-07-24T04:58:50.466Z,5.20
2023-07-24T05:01:17.007Z,4.85
2023-07-24T05:03:43.495Z,5.43
2023-07-24T05:06:10.088Z,5.07
2023-07-24T05:08:36.687Z,4.95
2023-07-24T05:11:03.164Z,5.80
2023-07-24T05:13:29.770Z,5.47
2023-07-24T05:15:56.283Z,5.53
2023-07-24T05:18:22.895Z,5.68
2023-07-24T05:20:52.788Z,5.65
2023-07-24T05:23:19.798Z,5.00
2023-07-24T05:25:46.411Z,5.30
2023-07-24T05:28:12.909Z,5.72
2023-07-24T05:30:39.482Z,5.45
2023-07-24T05:33:06.101Z,5.75
2023-07-24T05:35:32.819Z,5.60
2023-07-24T05:37:59.381Z,5.60
2023-07-24T05:40:25.955Z,5.63
2023-07-24T05:42:52.614Z,6.18
2023-07-24T05:45:19.273Z,5.57
2023-07-24T05:47:45.791Z,5.85
2023-07-24T05:50:14.474Z,5.65
2023-07-24T05:52:41.659Z,6.18
2023-07-24T05:55:08.877Z,5.28
2023-07-24T05:57:35.430Z,5.70
2023-07-24T06:00:02.537Z,5.88
2023-07-24T06:02:37.956Z,5.60
2023-07-24T06:05:04.983Z,5.90
2023-07-24T06:07:34.349Z,5.53
2023-07-24T06:10:00.887Z,5.40
2023-07-24T06:12:27.420Z,5.75
2023-07-24T06:14:54.053Z,5.78
2023-07-24T06:17:20.608Z,5.40
2023-07-24T06:19:47.231Z,5.28
2023-07-24T06:22:13.750Z,5.38
2023-07-24T06:24:40.532Z,5.35
2023-07-24T06:27:09.914Z,5.50
2023-07-24T06:29:38.056Z,5.57
2023-07-24T06:32:06.222Z,5.43
2023-07-24T06:34:32.780Z,5.85
2023-07-24T06:37:09.144Z,5.50
2023-07-24T06:39:44.635Z,5.05
2023-07-24T06:42:11.224Z,4.72
2023-07-24T06:44:37.797Z,5.22
2023-07-24T06:47:04.552Z,4.70
2023-07-24T06:49:31.122Z,5.22
2023-07-24T06:51:57.660Z,4.57
2023-07-24T06:54:24.206Z,5.03
2023-07-24T06:56:50.720Z,4.35
2023-07-24T06:59:17.291Z,4.47
2023-07-24T07:01:43.897Z,4.95
2023-07-24T07:04:10.451Z,5.00
2023-07-24T07:06:39.080Z,5.10
2023-07-24T07:09:06.569Z,4.93
2023-07-24T07:11:33.211Z,4.82
2023-07-24T07:13:59.765Z,4.95
2023-07-24T07:16:26.454Z,4.82
2023-07-24T07:18:52.980Z,4.93
2023-07-24T07:21:19.627Z,4.97
2023-07-24T07:23:47.498Z,5.15
2023-07-24T07:26:14.107Z,4.78
2023-07-24T07:28:40.657Z,5.15
2023-07-24T07:31:07.341Z,5.10
2023-07-24T07:33:33.828Z,5.03
2023-07-24T07:36:00.306Z,5.25
2023-07-24T07:38:26.872Z,4.97
2023-07-24T07:40:53.405Z,5.22
2023-07-24T07:43:20.063Z,4.85
2023-07-24T07:45:47.761Z,5.15
2023-07-24T07:48:14.351Z,4.80
2023-07-24T07:50:40.865Z,4.75
2023-07-24T07:53:08.909Z,4.78
2023-07-24T07:55:35.414Z,5.60
2023-07-24T07:58:01.896Z,5.40
2023-07-24T08:00:28.520Z,5.30
2023-07-24T08:02:55.113Z,5.32
2023-07-24T08:05:21.952Z,5.43
2023-07-24T08:07:48.665Z,5.00
2023-07-24T08:10:17.367Z,5.20
2023-07-24T08:12:44.830Z,5.30
2023-07-24T08:15:12.401Z,5.38
2023-07-24T08:17:39.108Z,5.18
2023-07-24T08:20:06.224Z,5.07
2023-07-24T08:22:32.959Z,5.03
2023-07-24T08:24:59.646Z,5.10
2023-07-24T08:27:26.251Z,4.95
2023-07-24T08:29:53.914Z,5.43
2023-07-24T08:32:20.964Z,5.18
2023-07-24T08:34:47.696Z,5.38
2023-07-24T08:37:14.244Z,4.70
2023-07-24T08:39:40.887Z,4.95
2023-07-24T08:42:14.241Z,4.78
2023-07-24T08:44:41.215Z,4.80
2023-07-24T08:47:11.324Z,4.72
2023-07-24T08:49:40.070Z,5.00
2023-07-24T08:52:07.796Z,5.00
2023-07-24T08:54:37.651Z,5.00
2023-07-24T08:57:07.472Z,4.80
2023-07-24T08:59:34.930Z,4.90
2023-07-24T09:02:01.694Z,4.90
2023-07-24T09:04:28.422Z,4.90
2023-07-24T09:06:59.163Z,4.50
2023-07-24T09:09:31.599Z,5.43
2023-07-24T09:12:00.158Z,5.40
2023-07-24T09:14:33.155Z,5.32
2023-07-24T09:17:07.610Z,4.47
2023-07-24T09:19:34.813Z,4.85
2023-07-24T09:22:11.498Z,5.53
2023-07-24T09:24:39.241Z,4.97
2023-07-24T09:27:08.218Z,4.72
2023-07-24T09:29:35.321Z,5.90
2023-07-24T09:32:02.097Z,4.90
2023-07-24T09:34:28.859Z,5.70
2023-07-24T09:36:55.380Z,5.00
2023-07-24T09:39:29.375Z,4.22
2023-07-24T09:42:04.258Z,4.10
2023-07-24T09:44:32.331Z,4.60
2023-07-24T09:47:06.564Z,4.72
2023-07-24T09:49:46.914Z,4.85
2023-07-24T09:52:15.276Z,5.35
2023-07-24T09:55:12.350Z,4.65
2023-07-24T09:57:39.925Z,4.75
2023-07-24T10:00:08.436Z,4.93
2023-07-24T10:02:36.297Z,4.72
2023-07-24T10:05:03.005Z,4.90
2023-07-24T10:07:30.648Z,4.13
2023-07-24T10:09:57.908Z,4.57
2023-07-24T10:12:28.888Z,4.40
2023-07-24T10:14:56.496Z,4.85
2023-07-24T10:17:37.228Z,4.38
2023-07-24T10:20:09.175Z,4.72
2023-07-24T10:22:38.694Z,4.43
2023-07-24T10:25:05.685Z,4.70
2023-07-24T10:27:32.399Z,4.38
2023-07-24T10:30:11.888Z,4.88
2023-07-24T10:32:53.067Z,4.18
2023-07-24T10:35:23.813Z,4.40
2023-07-24T10:38:00.400Z,4.18
2023-07-24T10:40:26.911Z,4.30
2023-07-24T10:43:01.082Z,4.20
2023-07-24T10:45:27.694Z,3.72
2023-07-24T10:47:55.108Z,4.50
2023-07-24T10:50:21.649Z,4.03
2023-07-24T10:52:48.503Z,4.07
2023-07-24T10:55:14.967Z,4.32
2023-07-24T10:57:41.686Z,3.97
2023-07-24T11:00:08.885Z,3.78
2023-07-24T11:02:35.550Z,4.07
2023-07-24T11:05:02.402Z,4.05
2023-07-24T11:07:34.066Z,3.92
2023-07-24T11:10:00.553Z,4.43
2023-07-24T11:12:31.718Z,4.35
2023-07-24T11:14:59.985Z,4.07
2023-07-24T11:17:38.250Z,4.85
2023-07-24T11:20:09.154Z,4.60
2023-07-24T11:22:35.770Z,4.20
2023-07-24T11:25:02.831Z,4.88
2023-07-24T11:27:29.309Z,4.25
2023-07-24T11:29:55.794Z,4.40
2023-07-24T11:32:23.147Z,4.78
2023-07-24T11:34:51.338Z,4.45
2023-07-24T11:37:21.519Z,5.30
2023-07-24T11:40:09.344Z,4.22
2023-07-24T11:42:40.436Z,4.95
2023-07-24T11:45:10.724Z,5.13
2023-07-24T11:47:44.455Z,6.20
2023-07-24T11:50:11.289Z,5.97
2023-07-24T11:52:51.392Z,5.78
2023-07-24T11:55:31.337Z,6.10
2023-07-24T11:57:59.096Z,6.18
2023-07-24T12:00:25.813Z,6.20
2023-07-24T12:02:52.493Z,6.50
2023-07-24T12:05:19.487Z,5.47
2023-07-24T12:07:47.208Z,5.40
2023-07-24T12:10:15.323Z,5.82
2023-07-24T12:12:47.354Z,4.97
2023-07-24T12:15:15.410Z,5.13
2023-07-24T12:17:42.534Z,4.60
2023-07-24T12:20:13.497Z,4.70
2023-07-24T12:22:40.232Z,4.70
2023-07-24T12:25:07.615Z,4.57
2023-07-24T12:27:34.534Z,5.32
2023-07-24T12:30:01.677Z,4.43
2023-07-24T12:32:28.312Z,5.10
2023-07-24T12:34:55.283Z,4.80
2023-07-24T12:37:21.849Z,4.85
2023-07-24T12:39:49.233Z,4.82
2023-07-24T12:42:16.975Z,5.72
2023-07-24T12:44:44.134Z,4.90
2023-07-24T12:47:12.099Z,5.28
2023-07-24T12:49:38.936Z,5.43
2023-07-24T12:52:06.695Z,5.00
2023-07-24T12:54:46.343Z,4.80
2023-07-24T12:57:19.971Z,3.42
2023-07-24T12:59:46.605Z,3.28
2023-07-24T13:02:13.233Z,3.47
2023-07-24T13:04:40.067Z,4.00
2023-07-24T13:07:06.669Z,5.18
2023-07-24T13:09:33.169Z,5.80
2023-07-24T13:11:59.843Z,5.88
2023-07-24T13:14:26.365Z,6.18
2023-07-24T13:16:53.101Z,6.32
2023-07-24T13:19:21.747Z,5.95
2023-07-24T13:21:48.459Z,6.15
2023-07-24T13:24:15.324Z,5.95
2023-07-24T13:26:42.054Z,6.50
2023-07-24T13:29:08.604Z,6.93
2023-07-24T13:31:36.122Z,6.53
2023-07-24T13:34:03.259Z,6.00
2023-07-24T13:36:30.178Z,6.45
2023-07-24T13:38:57.022Z,6.55
2023-07-24T13:41:26.144Z,5.85
2023-07-24T13:43:52.851Z,5.88
2023-07-24T13:46:19.828Z,5.10
2023-07-24T13:48:46.426Z,6.05
2023-07-24T13:51:13.034Z,5.47
2023-07-24T13:53:39.700Z,5.72
2023-07-24T13:56:06.660Z,4.68
2023-07-24T13:58:33.203Z,4.40
2023-07-24T14:00:59.880Z,4.22
2023-07-24T14:03:30.280Z,4.47
2023-07-24T14:05:57.908Z,4.45
2023-07-24T14:08:24.650Z,4.40
2023-07-24T14:10:51.627Z,4.97
2023-07-24T14:13:18.467Z,5.05
2023-07-24T14:15:45.016Z,4.85
2023-07-24T14:18:11.587Z,5.20
2023-07-24T14:20:41.538Z,5.80
2023-07-24T14:23:11.695Z,5.65
2023-07-24T14:25:38.278Z,6.38
2023-07-24T14:28:05.008Z,5.75
2023-07-24T14:30:31.564Z,6.47
2023-07-24T14:32:58.034Z,6.07
2023-07-24T14:35:24.565Z,4.20
2023-07-24T14:37:51.108Z,3.13
2023-07-24T14:40:18.102Z,3.60
2023-07-24T14:42:44.800Z,2.92
2023-07-24T14:45:11.506Z,2.90
2023-07-24T14:47:38.063Z,2.63
2023-07-24T14:50:05.052Z,2.58
2023-07-24T14:52:31.569Z,2.45
2023-07-24T14:54:58.114Z,2.47
2023-07-24T14:57:26.515Z,2.40
2023-07-24T14:59:53.680Z,2.70
2023-07-24T15:02:20.335Z,2.20
2023-07-24T15:04:47.039Z,2.50
2023-07-24T15:07:13.610Z,2.60
2023-07-24T15:09:40.161Z,2.55
2023-07-24T15:12:06.912Z,2.78
2023-07-24T15:14:33.470Z,2.40
2023-07-24T15:17:00.090Z,2.13
2023-07-24T15:19:26.693Z,1.88
2023-07-24T15:21:53.347Z,2.17
2023-07-24T15:24:20.367Z,2.50
2023-07-24T15:26:47.218Z,1.90
2023-07-24T15:29:18.862Z,6.93
2023-07-24T15:31:46.530Z,2.20
2023-07-24T15:34:13.290Z,2.20
2023-07-24T15:36:39.849Z,1.65
2023-07-24T15:39:06.513Z,1.52
2023-07-24T15:41:33.537Z,1.60
2023-07-24T15:44:00.514Z,1.40
2023-07-24T15:46:29.934Z,1.52
2023-07-24T15:48:57.539Z,1.40
2023-07-24T15:51:25.605Z,1.20
2023-07-24T15:53:52.131Z,1.25
2023-07-24T15:56:18.888Z,1.73
2023-07-24T15:58:47.548Z,1.38
2023-07-24T16:01:14.191Z,1.27
2023-07-24T16:03:40.787Z,1.23
2023-07-24T16:06:07.258Z,1.20
2023-07-24T16:08:33.755Z,1.08
2023-07-24T16:11:00.324Z,1.35
2023-07-24T16:13:26.904Z,1.00
2023-07-24T16:15:53.613Z,1.10
2023-07-24T16:18:24.440Z,1.00
2023-07-24T16:20:51.257Z,0.85
2023-07-24T16:23:17.858Z,1.00
2023-07-24T16:25:44.475Z,1.00
2023-07-24T16:28:11.013Z,0.98
2023-07-24T16:30:37.589Z,0.98
2023-07-24T16:33:04.298Z,0.85
2023-07-24T16:35:32.227Z,0.63
2023-07-24T16:37:58.850Z,0.90
2023-07-24T16:40:25.385Z,1.00
2023-07-24T16:42:56.636Z,1.00
2023-07-24T16:47:52.932Z,1.02
2023-07-24T16:50:19.663Z,1.10
2023-07-24T16:52:46.234Z,1.10
2023-07-24T16:55:12.780Z,1.30
2023-07-24T16:57:39.447Z,0.98
2023-07-24T17:00:08.523Z,1.20
2023-07-24T17:02:36.693Z,1.27
2023-07-24T17:05:03.477Z,1.08
2023-07-24T17:07:30.012Z,1.30
2023-07-24T17:09:56.516Z,1.40
2023-07-24T17:12:23.096Z,1.30
2023-07-24T17:14:49.755Z,1.40
2023-07-24T17:17:16.328Z,1.55
2023-07-24T17:19:43.071Z,1.20
2023-07-24T17:22:09.894Z,1.35
2023-07-24T17:24:36.865Z,1.58
2023-07-24T17:27:03.766Z,1.23
2023-07-24T17:29:30.334Z,1.30
2023-07-24T17:31:56.948Z,1.30
2023-07-24T17:34:23.540Z,1.30
2023-07-24T17:36:50.114Z,1.33
2023-07-24T17:39:16.822Z,1.50
2023-07-24T17:41:43.275Z,1.50
2023-07-24T17:44:09.840Z,1.35
2023-07-24T17:46:36.643Z,1.50
2023-07-24T17:49:03.298Z,1.90
2023-07-24T17:51:31.117Z,1.65
2023-07-24T17:54:00.631Z,1.17
2023-07-24T17:56:27.114Z,1.60
2023-07-24T17:58:53.721Z,1.38
2023-07-24T18:01:22.024Z,1.23
2023-07-24T18:03:48.814Z,1.85
2023-07-24T18:06:15.464Z,1.77
2023-07-24T18:08:41.983Z,1.45
2023-07-24T18:11:08.655Z,1.40
2023-07-24T18:13:35.158Z,1.27
2023-07-24T18:16:01.752Z,1.48
2023-07-24T18:18:28.746Z,1.50
2023-07-24T18:20:55.706Z,1.73
2023-07-24T18:23:22.261Z,1.40
2023-07-24T18:25:48.759Z,1.60
2023-07-24T18:28:17.190Z,1.45
2023-07-24T18:30:43.784Z,1.40
2023-07-24T18:33:11.313Z,1.63
2023-07-24T18:35:38.046Z,1.55
2023-07-24T18:38:04.598Z,1.73
2023-07-24T18:40:31.204Z,1.90
2023-07-24T18:42:57.769Z,1.30
2023-07-24T18:45:24.400Z,1.75
2023-07-24T18:47:50.967Z,1.90
2023-07-24T18:50:17.490Z,1.63
2023-07-24T18:52:44.017Z,1.48
2023-07-24T18:55:10.638Z,1.67
2023-07-24T18:57:37.198Z,1.40
2023-07-24T19:00:04.289Z,1.45
2023-07-24T19:02:30.909Z,1.70
2023-07-24T19:04:57.644Z,1.55
2023-07-24T19:07:24.116Z,1.48
2023-07-24T19:09:50.595Z,1.45
2023-07-24T19:12:19.994Z,1.52
2023-07-24T19:14:46.520Z,1.75
2023-07-24T19:17:13.037Z,1.60
2023-07-24T19:19:39.557Z,1.65
2023-07-24T19:22:06.868Z,1.77
2023-07-24T19:24:33.605Z,1.40
2023-07-24T19:27:00.702Z,1.83
2023-07-24T19:29:27.221Z,1.70
2023-07-24T19:31:53.917Z,1.75
2023-07-24T19:34:20.524Z,1.77
2023-07-24T19:36:47.132Z,1.40
2023-07-24T19:39:14.045Z,1.40
2023-07-24T19:41:40.616Z,1.60
2023-07-24T19:44:07.306Z,1.38
2023-07-24T19:46:33.904Z,2.00
2023-07-24T19:49:01.227Z,1.50
2023-07-24T19:51:27.789Z,1.50
2023-07-24T19:53:54.449Z,1.80
2023-07-24T19:56:21.035Z,1.55
2023-07-24T19:58:47.566Z,1.55
2023-07-24T20:01:14.101Z,1.83
2023-07-24T20:03:40.773Z,1.48
2023-07-24T20:06:08.530Z,1.83
2023-07-24T20:08:35.563Z,1.60
2023-07-24T20:11:07.617Z,1.30
2023-07-24T20:13:34.990Z,1.40
2023-07-24T20:16:02.308Z,1.58
2023-07-24T20:18:28.986Z,1.92
2023-07-24T20:20:56.285Z,1.90
2023-07-24T20:23:23.336Z,1.88
2023-07-24T20:25:51.684Z,1.75
2023-07-24T20:28:19.506Z,1.60
2023-07-24T20:30:46.455Z,1.63
2023-07-24T20:33:13.529Z,1.60
2023-07-24T20:35:40.071Z,1.98
2023-07-24T20:38:07.627Z,1.88
2023-07-24T20:40:35.007Z,1.70
2023-07-24T20:43:05.600Z,1.85
2023-07-24T20:45:32.300Z,1.67
2023-07-24T20:47:59.033Z,2.28
2023-07-24T20:50:25.855Z,1.70
2023-07-24T20:52:52.406Z,1.77
2023-07-24T20:55:18.982Z,1.88
2023-07-24T20:57:45.541Z,1.80
2023-07-24T21:00:12.732Z,1.90
2023-07-24T21:02:39.293Z,1.70
2023-07-24T21:05:06.316Z,2.20
2023-07-24T21:07:32.866Z,1.88
2023-07-24T21:09:59.400Z,1.80
2023-07-24T21:12:26.048Z,1.67
2023-07-24T21:14:52.642Z,1.63
2023-07-24T21:17:19.551Z,1.90
2023-07-24T21:19:46.163Z,1.70
2023-07-24T21:22:14.155Z,1.90
2023-07-24T21:24:40.754Z,2.05
2023-07-24T21:27:07.439Z,2.20
2023-07-24T21:29:33.990Z,2.33
2023-07-24T21:32:00.530Z,2.22
2023-07-24T21:34:27.134Z,2.25
2023-07-24T21:36:53.687Z,2.15
2023-07-24T21:39:20.429Z,1.98
2023-07-24T21:41:46.970Z,2.00
2023-07-24T21:44:13.526Z,1.95
2023-07-24T21:46:40.141Z,2.00
2023-07-24T21:49:06.744Z,1.90
2023-07-24T21:51:33.706Z,1.90
2023-07-24T21:54:00.556Z,1.95
2023-07-24T21:56:27.242Z,1.83
2023-07-24T21:58:53.750Z,2.50
2023-07-24T22:01:21.373Z,2.05
2023-07-24T22:03:48.617Z,2.22
2023-07-24T22:06:15.255Z,2.22
2023-07-24T22:08:41.964Z,1.92
2023-07-24T22:11:12.977Z,1.95
2023-07-24T22:13:41.516Z,2.28
2023-07-24T22:16:08.291Z,1.85
2023-07-24T22:18:34.948Z,1.90
2023-07-24T22:21:01.916Z,1.92
2023-07-24T22:23:28.774Z,1.85
2023-07-24T22:25:55.927Z,1.83
2023-07-24T22:28:22.596Z,1.92
2023-07-24T22:30:49.952Z,1.85
2023-07-24T22:33:16.804Z,2.28
2023-07-24T22:35:43.309Z,1.92
2023-07-24T22:38:09.903Z,1.70
2023-07-24T22:40:36.435Z,1.90
2023-07-24T22:43:03.132Z,1.85
2023-07-24T22:45:29.724Z,1.90
2023-07-24T22:47:56.479Z,1.63
2023-07-24T22:50:23.277Z,2.00
2023-07-24T22:52:49.955Z,2.22
2023-07-24T22:55:19.552Z,2.10
2023-07-24T22:57:46.131Z,2.55
2023-07-24T23:00:13.128Z,2.13
2023-07-24T23:02:39.681Z,2.30
2023-07-24T23:05:06.861Z,2.10
2023-07-24T23:07:33.382Z,2.25
2023-07-24T23:09:59.904Z,1.80
2023-07-24T23:12:26.556Z,1.98
2023-07-24T23:14:53.202Z,1.90
2023-07-24T23:17:19.813Z,2.05
2023-07-24T23:19:46.404Z,2.05
2023-07-24T23:22:13.066Z,2.38
2023-07-24T23:24:39.664Z,2.35
2023-07-24T23:27:06.333Z,2.28
2023-07-24T23:29:32.850Z,2.35
2023-07-24T23:31:59.393Z,2.47
2023-07-24T23:34:26.077Z,2.28
2023-07-24T23:36:52.707Z,2.20
2023-07-24T23:39:19.455Z,2.70
2023-07-24T23:41:46.017Z,2.45
2023-07-24T23:44:12.554Z,2.30
2023-07-24T23:46:41.118Z,2.40
2023-07-24T23:49:07.775Z,2.55
2023-07-24T23:51:34.617Z,2.42
2023-07-24T23:54:01.437Z,2.20
2023-07-24T23:56:28.033Z,2.10
2023-07-24T23:58:54.557Z,2.70
